Time;durP1;ratioP1;P1;durP2;ratioP2;P2;SDS_P1;SDS_P2;PMS_P1;PMS_P2;Temp;Humidity;BMP_temperature;BMP_pressure;BME280_temperature;BME280_humidity;BME280_pressure;Samples;Min_cycle;Max_cycle;Signal;HPM_P1;HPM_P2
2022/08/21 00:01:18;;;;;;;4.07;1.50;;;;;;;15.65;80.09;101046.53;6037723;28;20052;-65
2022/08/21 00:04:13;;;;;;;6.32;1.38;;;;;;;15.84;80.46;101053.34;6037756;28;20027;-64
2022/08/21 00:07:09;;;;;;;4.77;1.30;;;;;;;15.97;79.21;101029.56;6043522;28;20037;-64
2022/08/21 00:10:05;;;;;;;6.10;1.48;;;;;;;15.87;79.34;101028.94;6041496;28;20775;-65
2022/08/21 00:13:02;;;;;;;3.38;1.27;;;;;;;15.74;80.06;101042.81;6040857;28;20076;-65
2022/08/21 00:15:57;;;;;;;4.55;1.40;;;;;;;15.41;81.29;101026.00;6035791;28;20040;-66
2022/08/21 00:18:53;;;;;;;2.83;1.30;;;;;;;15.43;81.50;101036.53;6029257;28;20042;-65
2022/08/21 00:21:48;;;;;;;4.33;2.47;;;;;;;15.56;81.59;101044.88;6045375;28;20038;-66
2022/08/21 00:24:43;;;;;;;2.87;1.47;;;;;;;15.53;80.99;101028.34;6037440;28;20370;-64
2022/08/21 00:27:41;;;;;;;3.23;1.47;;;;;;;15.45;81.63;101034.50;6044216;28;20034;-66
2022/08/21 00:30:37;;;;;;;4.70;1.38;;;;;;;15.19;82.75;101010.66;6031570;28;20117;-65
2022/08/21 00:33:33;;;;;;;6.25;1.60;;;;;;;15.48;81.68;101034.22;6038037;28;20026;-64
2022/08/21 00:36:29;;;;;;;3.75;1.45;;;;;;;15.40;81.82;101018.16;6041043;28;20480;-64
2022/08/21 00:39:24;;;;;;;5.80;1.88;;;;;;;15.41;82.19;101031.34;6043034;28;20034;-65
2022/08/21 00:42:20;;;;;;;4.03;1.50;;;;;;;15.65;82.06;101027.84;6033608;28;20042;-65
2022/08/21 00:45:15;;;;;;;3.10;1.23;;;;;;;16.19;81.56;101007.38;6028313;28;20533;-65
2022/08/21 00:48:10;;;;;;;6.77;1.70;;;;;;;16.01;79.68;101012.13;6039618;28;20030;-65
2022/08/21 00:51:10;;;;;;;4.65;1.40;;;;;;;15.83;79.24;101027.59;6038827;28;20105;-66
2022/08/21 00:54:06;;;;;;;5.10;1.70;;;;;;;15.65;80.18;101030.50;6039648;28;20393;-66
2022/08/21 00:57:10;;;;;;;5.03;1.50;;;;;;;15.41;81.42;101006.44;6032771;28;20404;-65
2022/08/21 01:00:10;;;;;;;5.05;1.52;;;;;;;15.35;81.84;101005.31;6044908;28;20026;-66
2022/08/21 01:03:08;;;;;;;5.35;1.40;;;;;;;15.14;82.21;101002.31;6033028;28;20126;-64
2022/08/21 01:06:05;;;;;;;4.25;1.45;;;;;;;14.94;83.82;101008.16;6035037;28;20026;-64
2022/08/21 01:09:00;;;;;;;2.58;1.35;;;;;;;14.63;84.47;100992.78;6044867;28;20037;-64
2022/08/21 01:11:56;;;;;;;2.70;1.40;;;;;;;14.52;85.67;101019.81;6044788;28;20165;-66
2022/08/21 01:14:51;;;;;;;9.07;1.47;;;;;;;14.26;86.21;101014.56;6047627;28;20847;-66
2022/08/21 01:17:48;;;;;;;3.55;1.50;;;;;;;14.11;86.99;101008.16;6049875;28;20992;-64
2022/08/21 01:21:01;;;;;;;5.45;1.52;;;;;;;14.06;88.24;101025.63;6045438;28;20062;-64
2022/08/21 01:23:57;;;;;;;4.75;1.40;;;;;;;13.92;88.95;101023.56;6029912;28;20686;-64
2022/08/21 01:26:52;;;;;;;4.38;1.90;;;;;;;13.95;90.18;101024.09;6053604;28;20022;-65
2022/08/21 01:29:56;;;;;;;5.78;1.52;;;;;;;14.00;89.12;101035.09;6043564;28;20046;-65
2022/08/21 01:32:53;;;;;;;4.70;1.55;;;;;;;13.86;90.27;101035.69;6042206;28;20049;-64
2022/08/21 01:35:48;;;;;;;8.13;1.70;;;;;;;13.67;91.02;101026.09;6039433;28;20072;-66
2022/08/21 01:38:43;;;;;;;3.67;1.57;;;;;;;13.67;91.74;101038.59;6035404;28;20457;-65
2022/08/21 01:41:39;;;;;;;5.03;1.60;;;;;;;13.49;92.45;101032.50;6038027;28;20065;-65
2022/08/21 01:44:35;;;;;;;5.30;1.53;;;;;;;13.43;93.21;101033.13;6030263;28;20116;-66
2022/08/21 01:47:30;;;;;;;5.32;1.70;;;;;;;14.12;93.66;101041.00;6043833;28;20273;-66
2022/08/21 01:50:25;;;;;;;4.15;1.80;;;;;;;14.00;91.92;101035.09;6040418;28;20038;-66
2022/08/21 01:53:20;;;;;;;3.80;1.50;;;;;;;13.63;92.30;101030.09;6046937;28;20034;-65
2022/08/21 01:56:16;;;;;;;3.27;1.60;;;;;;;13.58;93.09;101036.91;6038806;28;20030;-65
2022/08/21 01:59:12;;;;;;;6.60;1.80;;;;;;;13.40;93.41;101036.94;6046470;28;20180;-65
2022/08/21 02:02:08;;;;;;;5.28;1.67;;;;;;;13.29;94.06;101041.69;6047102;28;20033;-65
2022/08/21 02:05:04;;;;;;;4.43;1.50;;;;;;;13.45;94.93;101036.50;6046134;28;20033;-64
2022/08/21 02:07:59;;;;;;;4.25;1.88;;;;;;;14.07;92.89;101017.50;6047674;28;20033;-65
2022/08/21 02:10:54;;;;;;;5.33;1.97;;;;;;;13.77;91.70;101020.69;6038601;28;20037;-64
2022/08/21 02:13:49;;;;;;;3.43;2.17;;;;;;;13.47;91.88;101029.16;6046319;28;20061;-66
2022/08/21 02:16:45;;;;;;;6.00;1.63;;;;;;;13.43;92.37;101022.47;6039100;28;20038;-65
2022/08/21 02:19:41;;;;;;;6.82;1.90;;;;;;;14.36;90.11;101016.25;6028946;28;20455;-65
2022/08/21 02:22:36;;;;;;;4.27;1.70;;;;;;;14.14;89.40;101017.66;6038503;28;20045;-66
2022/08/21 02:25:32;;;;;;;4.82;1.85;;;;;;;13.84;89.22;101013.72;6044729;28;20033;-66
2022/08/21 02:28:27;;;;;;;6.33;1.73;;;;;;;13.50;90.80;101007.53;6045819;28;20117;-64
2022/08/21 02:31:22;;;;;;;5.65;2.08;;;;;;;13.18;91.21;100999.34;6040143;28;20685;-65
2022/08/21 02:34:18;;;;;;;5.40;1.53;;;;;;;13.13;92.72;101011.28;6043416;28;20616;-65
2022/08/21 02:37:13;;;;;;;8.23;1.80;;;;;;;13.61;91.75;101009.94;6045901;28;20026;-65
2022/08/21 02:40:11;;;;;;;4.87;2.10;;;;;;;13.37;91.96;101010.59;6039267;28;20370;-64
2022/08/21 02:43:06;;;;;;;6.18;1.88;;;;;;;13.05;92.83;101003.19;6043929;28;20430;-66
2022/08/21 02:46:03;;;;;;;8.15;2.50;;;;;;;12.96;94.13;101017.41;6037189;28;20042;-64
2022/08/21 02:48:59;;;;;;;5.25;2.15;;;;;;;13.42;95.32;101000.34;6045353;28;20365;-66
2022/08/21 02:51:54;;;;;;;5.80;2.73;;;;;;;14.08;94.19;100995.13;6037594;28;20030;-66
2022/08/21 02:54:50;;;;;;;6.03;1.90;;;;;;;14.22;90.57;100989.19;6038886;28;20042;-64
2022/08/21 02:57:45;;;;;;;6.82;2.28;;;;;;;14.40;89.32;100991.78;6033840;28;20029;-65
2022/08/21 03:00:41;;;;;;;5.20;1.97;;;;;;;13.81;89.53;100991.84;6032229;28;20066;-65
2022/08/21 03:03:39;;;;;;;7.18;2.20;;;;;;;14.47;90.72;101007.94;6041796;28;20124;-66
2022/08/21 03:06:34;;;;;;;6.70;1.88;;;;;;;14.16;88.31;101000.50;6042813;28;20466;-64
2022/08/21 03:09:29;;;;;;;3.90;2.00;;;;;;;14.08;89.08;101003.13;6043026;28;20049;-66
2022/08/21 03:12:24;;;;;;;3.83;2.00;;;;;;;13.72;89.37;100991.00;6045773;28;20037;-66
2022/08/21 03:15:23;;;;;;;4.43;1.93;;;;;;;13.53;89.88;100997.38;6040435;28;20405;-66
2022/08/21 03:18:19;;;;;;;4.38;1.77;;;;;;;13.43;90.47;100998.47;6038553;28;20029;-65
2022/08/21 03:21:14;;;;;;;3.22;1.65;;;;;;;13.80;90.84;100999.03;6041937;28;20053;-65
2022/08/21 03:24:09;;;;;;;6.60;1.70;;;;;;;14.25;89.93;100996.03;6045848;28;20535;-66
2022/08/21 03:27:05;;;;;;;6.53;2.10;;;;;;;14.37;88.08;101001.94;6032847;28;20316;-64
2022/08/21 03:30:00;;;;;;;3.37;1.83;;;;;;;14.68;87.91;100987.78;6036034;28;20041;-66
2022/08/21 03:32:57;;;;;;;3.55;1.60;;;;;;;14.71;87.16;100989.28;6024717;28;20133;-66
2022/08/21 03:35:58;;;;;;;4.68;1.63;;;;;;;14.37;85.33;100999.25;6044402;28;20499;-64
2022/08/21 03:38:53;;;;;;;4.13;1.98;;;;;;;14.55;87.23;100994.63;6029336;28;20425;-65
2022/08/21 03:41:48;;;;;;;3.77;1.80;;;;;;;14.79;86.70;100994.63;6041343;28;20049;-66
2022/08/21 03:44:44;;;;;;;4.30;2.07;;;;;;;14.78;86.95;100993.00;6038383;28;20041;-66
2022/08/21 03:47:49;;;;;;;8.23;2.03;;;;;;;14.53;85.52;100993.94;6042302;28;20037;-66
2022/08/21 03:50:46;;;;;;;6.65;2.13;;;;;;;14.19;86.11;100991.34;6037564;28;20137;-66
2022/08/21 03:53:41;;;;;;;4.05;1.63;;;;;;;14.03;87.19;100997.47;6034400;28;20046;-66
2022/08/21 03:56:39;;;;;;;4.87;1.73;;;;;;;13.79;88.33;100992.03;6041596;28;20437;-66
2022/08/21 03:59:34;;;;;;;4.35;2.08;;;;;;;13.72;88.53;100985.69;6039521;28;20034;-66
2022/08/21 04:02:30;;;;;;;2.83;1.50;;;;;;;13.81;89.13;101002.53;6031118;28;20173;-64
2022/08/21 04:05:29;;;;;;;3.03;1.57;;;;;;;13.78;88.75;101003.69;6031462;28;20062;-66
2022/08/21 04:08:25;;;;;;;4.55;1.83;;;;;;;13.94;88.92;101001.06;6039277;28;20288;-65
2022/08/21 04:11:20;;;;;;;6.25;2.45;;;;;;;14.29;88.13;100987.53;6044317;28;20044;-65
2022/08/21 04:14:15;;;;;;;2.80;1.43;;;;;;;14.29;86.96;101000.84;6028353;28;20465;-65
2022/08/21 04:17:11;;;;;;;4.15;1.77;;;;;;;13.99;87.55;101000.63;6037102;28;20022;-66
2022/08/21 04:20:07;;;;;;;4.27;1.70;;;;;;;13.88;87.99;101004.41;6042457;28;20030;-66
2022/08/21 04:23:02;;;;;;;4.68;1.52;;;;;;;13.97;88.78;101003.44;6042421;28;20058;-66
2022/08/21 04:25:58;;;;;;;4.88;1.70;;;;;;;14.45;88.02;101000.13;6035459;28;20035;-66
2022/08/21 04:28:55;;;;;;;6.27;1.97;;;;;;;14.71;87.16;101010.66;6035516;28;20477;-66
2022/08/21 04:31:51;;;;;;;2.85;1.63;;;;;;;14.91;85.63;101004.00;6027264;28;20034;-65
2022/08/21 04:34:47;;;;;;;6.07;3.08;;;;;;;14.75;85.12;100998.66;6045419;28;20084;-65
2022/08/21 04:37:42;;;;;;;7.73;2.67;;;;;;;15.03;85.58;101013.31;6045688;28;20372;-66
2022/08/21 04:40:37;;;;;;;4.28;2.00;;;;;;;14.83;85.07;101012.84;6049892;28;20060;-64
2022/08/21 04:43:33;;;;;;;6.70;2.20;;;;;;;14.54;86.78;101019.66;6033021;28;20066;-65
2022/08/21 04:46:29;;;;;;;3.53;2.03;;;;;;;14.67;87.39;101020.00;6041647;28;20034;-66
2022/08/21 04:49:24;;;;;;;5.78;2.50;;;;;;;14.42;88.31;101020.94;6041293;28;20093;-65
2022/08/21 04:52:22;;;;;;;5.73;2.73;;;;;;;14.41;89.03;101022.78;6045445;28;20050;-65
2022/08/21 04:55:19;;;;;;;4.72;2.00;;;;;;;14.71;88.23;101024.00;6038157;28;20026;-64
2022/08/21 04:58:17;;;;;;;4.22;1.80;;;;;;;14.78;87.31;101017.00;6037030;28;20117;-66
2022/08/21 05:01:15;;;;;;;3.67;1.90;;;;;;;14.85;86.40;101013.50;6042503;28;20585;-66
2022/08/21 05:04:14;;;;;;;4.38;1.75;;;;;;;15.00;85.66;101024.34;6041815;28;20084;-64
2022/08/21 05:07:13;;;;;;;4.85;1.95;;;;;;;15.03;85.85;101018.66;6046351;28;20034;-65
2022/08/21 05:10:08;;;;;;;5.40;1.80;;;;;;;14.67;87.29;101033.34;6047221;28;20030;-66
2022/08/21 05:13:05;;;;;;;7.72;2.40;;;;;;;14.53;88.00;101029.50;6044443;28;20096;-64
2022/08/21 05:16:00;;;;;;;8.30;2.55;;;;;;;14.37;88.63;101020.59;6048731;28;20030;-64
2022/08/21 05:18:55;;;;;;;6.80;2.10;;;;;;;14.34;89.45;101012.91;6043507;28;20063;-66
2022/08/21 05:21:51;;;;;;;7.87;2.30;;;;;;;14.37;89.14;101023.28;6041630;28;20030;-65
2022/08/21 05:24:46;;;;;;;6.45;2.67;;;;;;;14.44;88.71;101016.28;6043745;28;20087;-66
2022/08/21 05:27:41;;;;;;;5.20;2.20;;;;;;;14.65;88.78;101027.31;6027721;28;20037;-66
2022/08/21 05:30:37;;;;;;;7.37;2.10;;;;;;;14.91;87.71;101036.03;6036317;28;20081;-65
2022/08/21 05:33:32;;;;;;;4.37;1.73;;;;;;;15.13;86.40;101029.19;6042059;28;20119;-64
2022/08/21 05:36:27;;;;;;;6.97;1.97;;;;;;;15.16;86.30;101037.72;6049474;28;20272;-66
2022/08/21 05:39:23;;;;;;;4.07;1.70;;;;;;;15.48;84.60;101032.38;6042297;28;20041;-66
2022/08/21 05:42:18;;;;;;;4.27;1.93;;;;;;;15.58;83.86;101037.53;6049086;28;20045;-65
2022/08/21 05:45:13;;;;;;;5.37;1.90;;;;;;;15.62;83.82;101028.16;6034882;28;20026;-65
2022/08/21 05:48:15;;;;;;;4.93;1.65;;;;;;;15.52;83.83;101032.84;6028987;28;20046;-64
2022/08/21 05:51:13;;;;;;;5.22;1.73;;;;;;;15.70;84.55;101025.47;6046254;28;20037;-65
2022/08/21 05:54:08;;;;;;;3.38;1.77;;;;;;;15.57;83.25;101029.69;6043081;28;20437;-65
2022/08/21 05:57:04;;;;;;;4.00;1.83;;;;;;;15.63;83.56;101037.00;6037862;28;20023;-65
2022/08/21 05:59:59;;;;;;;2.83;1.63;;;;;;;15.40;84.02;101020.81;6038750;28;20034;-65
2022/08/21 06:02:54;;;;;;;4.70;1.87;;;;;;;15.43;84.40;101025.84;6043239;28;20475;-64
2022/08/21 06:05:50;;;;;;;7.37;2.33;;;;;;;15.57;83.96;101032.34;6046012;28;20065;-65
2022/08/21 06:08:45;;;;;;;4.13;2.20;;;;;;;15.54;83.57;101022.00;6032333;28;20030;-65
2022/08/21 06:11:40;;;;;;;8.07;2.42;;;;;;;15.72;83.16;101030.63;6039030;28;20022;-65
2022/08/21 06:14:36;;;;;;;6.47;1.87;;;;;;;15.87;83.24;101027.06;6034711;28;20452;-65
2022/08/21 06:17:31;;;;;;;6.72;2.08;;;;;;;15.73;83.85;101026.97;6048276;28;20457;-65
2022/08/21 06:20:26;;;;;;;7.43;2.10;;;;;;;15.92;83.58;101029.25;6038724;28;20038;-65
2022/08/21 06:23:22;;;;;;;12.20;2.35;;;;;;;16.02;83.06;101021.84;6038346;28;20385;-65
2022/08/21 06:26:17;;;;;;;6.00;2.30;;;;;;;16.26;83.19;101027.06;6046627;28;20030;-65
2022/08/21 06:29:16;;;;;;;3.53;1.90;;;;;;;16.52;81.59;101021.44;6048118;28;20045;-66
2022/08/21 06:32:12;;;;;;;5.45;1.83;;;;;;;16.58;81.09;101005.50;6040108;28;20029;-65
2022/08/21 06:35:08;;;;;;;5.22;2.05;;;;;;;16.82;80.58;101033.13;6042523;28;20033;-65
2022/08/21 06:38:04;;;;;;;5.57;2.30;;;;;;;16.97;80.86;101040.22;6047129;28;20036;-65
2022/08/21 06:40:59;;;;;;;4.57;2.07;;;;;;;17.32;78.83;101027.19;6042794;28;20308;-64
2022/08/21 06:43:55;;;;;;;5.83;2.57;;;;;;;17.44;78.67;101036.47;6034800;28;20441;-65
2022/08/21 06:46:50;;;;;;;6.13;1.98;;;;;;;17.85;77.43;101029.69;6040222;28;20046;-64
2022/08/21 06:49:46;;;;;;;3.17;1.93;;;;;;;18.10;76.41;101027.53;6041367;28;20494;-65
2022/08/21 06:52:41;;;;;;;4.57;1.70;;;;;;;18.35;76.43;101035.06;6039164;28;20045;-66
2022/08/21 06:55:37;;;;;;;2.80;1.60;;;;;;;18.69;75.48;101026.41;6034071;28;20028;-65
2022/08/21 06:58:33;;;;;;;3.80;1.80;;;;;;;18.49;75.73;101014.59;6033753;28;20160;-66
2022/08/21 07:01:29;;;;;;;5.55;2.47;;;;;;;18.37;76.00;101030.34;6037261;28;20663;-65
2022/08/21 07:04:24;;;;;;;8.23;2.60;;;;;;;18.49;76.29;101025.34;6031544;28;20053;-65
2022/08/21 07:07:19;;;;;;;7.40;2.70;;;;;;;18.16;77.85;101024.91;6038785;28;20551;-66
2022/08/21 07:10:15;;;;;;;8.47;3.07;;;;;;;17.95;78.38;101015.97;6037776;28;20096;-66
2022/08/21 07:13:10;;;;;;;6.00;2.47;;;;;;;18.42;77.10;101013.69;6036945;28;20046;-66
2022/08/21 07:16:05;;;;;;;7.35;2.35;;;;;;;19.00;75.66;101021.53;6037640;28;20281;-64
2022/08/21 07:19:01;;;;;;;7.60;2.35;;;;;;;19.22;75.55;101041.16;6034179;28;20708;-66
2022/08/21 07:21:58;;;;;;;7.90;2.67;;;;;;;19.14;74.82;101024.31;6043299;28;20033;-65
2022/08/21 07:24:54;;;;;;;5.07;2.60;;;;;;;19.26;75.05;101030.84;6040804;28;20621;-67
2022/08/21 07:27:50;;;;;;;4.82;2.30;;;;;;;19.28;75.40;101015.34;6034307;28;20026;-65
2022/08/21 07:30:50;;;;;;;4.70;2.10;;;;;;;19.16;74.65;101006.16;6025693;28;20041;-67
2022/08/21 07:33:46;;;;;;;3.53;2.13;;;;;;;19.38;74.14;101015.84;6058152;28;20042;-65
2022/08/21 07:36:42;;;;;;;6.40;2.20;;;;;;;19.34;74.47;101003.81;6032786;28;20044;-67
2022/08/21 07:39:38;;;;;;;7.78;2.20;;;;;;;19.29;73.41;101017.03;6046151;28;20367;-65
2022/08/21 07:42:33;;;;;;;7.38;2.38;;;;;;;19.28;73.04;101015.34;6029048;28;20035;-66
2022/08/21 07:45:29;;;;;;;6.40;2.17;;;;;;;19.14;73.24;101008.19;6029735;28;20038;-66
2022/08/21 07:48:24;;;;;;;4.70;1.88;;;;;;;19.23;73.55;101007.03;6043797;28;20069;-65
2022/08/21 07:51:22;;;;;;;3.93;1.83;;;;;;;19.77;72.54;101004.53;6030156;28;20046;-64
2022/08/21 07:54:21;;;;;;;7.28;2.20;;;;;;;19.80;70.62;101010.34;6041166;28;20033;-63
2022/08/21 07:57:17;;;;;;;7.80;2.42;;;;;;;19.67;70.22;100994.13;6035771;28;20028;-64
2022/08/21 08:00:16;;;;;;;5.70;1.80;;;;;;;20.22;69.57;101005.78;6039320;28;20049;-65
2022/08/21 08:03:12;;;;;;;4.68;2.20;;;;;;;20.94;66.36;101000.59;6044801;28;20273;-63
2022/08/21 08:06:12;;;;;;;6.03;1.80;;;;;;;21.65;62.93;100993.50;6041771;28;20145;-64
2022/08/21 08:09:07;;;;;;;3.80;1.73;;;;;;;22.41;59.91;100995.31;6036363;28;20030;-63
2022/08/21 08:12:03;;;;;;;7.13;1.92;;;;;;;22.17;61.16;100989.84;6045132;28;20465;-65
2022/08/21 08:15:00;;;;;;;5.82;1.83;;;;;;;22.47;58.88;100997.16;6040788;28;20040;-65
2022/08/21 08:17:56;;;;;;;9.02;1.98;;;;;;;22.85;56.65;100993.63;6044138;28;20421;-64
2022/08/21 08:20:52;;;;;;;7.50;2.25;;;;;;;22.84;56.60;100975.72;6038027;28;20101;-63
2022/08/21 08:23:48;;;;;;;9.50;2.27;;;;;;;22.81;55.95;100981.56;6039556;28;20382;-65
2022/08/21 08:26:43;;;;;;;6.32;2.35;;;;;;;23.23;53.59;100985.41;6038936;28;20105;-64
2022/08/21 08:29:39;;;;;;;6.93;2.10;;;;;;;23.35;52.82;100984.44;6040534;28;20072;-64
2022/08/21 08:32:34;;;;;;;6.43;2.30;;;;;;;23.27;51.19;100981.19;6045279;28;20041;-64
2022/08/21 08:35:30;;;;;;;5.40;1.90;;;;;;;23.49;49.90;100982.47;6034286;28;20104;-64
2022/08/21 08:38:25;;;;;;;4.80;1.70;;;;;;;23.38;48.56;100984.03;6028929;28;20044;-65
2022/08/21 08:41:22;;;;;;;4.22;1.55;;;;;;;23.52;48.53;100979.31;6042104;28;20035;-64
2022/08/21 08:44:18;;;;;;;7.88;1.80;;;;;;;23.48;48.35;100973.50;6026724;28;20034;-65
2022/08/21 08:47:16;;;;;;;6.38;1.92;;;;;;;23.77;47.13;100966.53;6034388;28;20022;-63
2022/08/21 08:50:29;;;;;;;3.40;1.33;;;;;;;23.98;45.36;100978.78;6038396;28;20053;-63
2022/08/21 08:53:28;;;;;;;4.97;1.40;;;;;;;24.06;46.36;100997.44;6043401;28;20160;-63
2022/08/21 08:56:29;;;;;;;3.55;1.67;;;;;;;24.29;45.64;100975.91;6039368;28;20478;-64
2022/08/21 08:59:35;;;;;;;5.80;1.65;;;;;;;24.46;44.89;100976.91;6038185;28;20661;-65
2022/08/21 09:02:30;;;;;;;13.80;5.10;;;;;;;24.47;45.62;100972.31;6036653;28;20037;-64
2022/08/21 09:05:35;;;;;;;4.88;1.60;;;;;;;24.46;45.38;100976.91;6037840;28;20460;-63
2022/08/21 09:09:08;;;;;;;4.45;1.40;;;;;;;24.87;44.78;100973.41;6059831;28;20046;-64
2022/08/21 09:12:10;;;;;;;3.85;1.70;;;;;;;24.87;43.31;100975.31;6032680;28;20628;-63
2022/08/21 09:15:19;;;;;;;3.92;1.67;;;;;;;24.79;44.70;100968.31;6040646;28;20080;-65
2022/08/21 09:18:24;;;;;;;4.57;1.52;;;;;;;24.87;43.28;100957.13;6031877;28;20053;-64
2022/08/21 09:21:38;;;;;;;8.25;1.75;;;;;;;24.80;44.07;100969.97;6043235;28;20115;-66
2022/08/21 09:24:42;;;;;;;5.70;1.92;;;;;;;24.88;44.20;100960.66;6047745;28;20123;-65
2022/08/21 09:27:37;;;;;;;4.45;1.80;;;;;;;25.06;44.13;100966.00;6048589;28;20169;-64
2022/08/21 09:30:33;;;;;;;7.60;2.08;;;;;;;25.26;44.67;100964.59;6036743;28;20038;-65
2022/08/21 09:33:29;;;;;;;6.43;1.80;;;;;;;25.24;43.68;100958.59;6049644;28;20041;-65
2022/08/21 09:36:31;;;;;;;6.95;2.17;;;;;;;25.29;44.33;100966.00;6042687;28;20069;-63
2022/08/21 09:39:32;;;;;;;4.18;1.90;;;;;;;25.55;44.01;100957.41;6034063;28;20030;-64
2022/08/21 09:42:31;;;;;;;6.38;1.70;;;;;;;25.44;44.28;100947.34;6040966;28;20445;-64
2022/08/21 09:45:27;;;;;;;5.75;2.45;;;;;;;25.25;44.01;100954.78;6043553;28;20038;-64
2022/08/21 09:48:24;;;;;;;6.20;2.08;;;;;;;25.16;44.32;100958.94;6043679;28;20103;-65
2022/08/21 09:51:23;;;;;;;3.97;1.80;;;;;;;24.85;45.21;100948.38;6035928;28;20038;-64
2022/08/21 09:54:19;;;;;;;5.05;1.85;;;;;;;25.01;44.28;100944.16;6045028;28;20041;-65
2022/08/21 09:57:45;;;;;;;5.32;2.13;;;;;;;25.34;43.42;100939.81;6039927;28;20026;-65
2022/08/21 10:00:41;;;;;;;7.55;2.10;;;;;;;25.59;42.46;100955.88;6046211;28;20034;-65
2022/08/21 10:03:36;;;;;;;7.93;1.80;;;;;;;25.80;42.24;100954.41;6036338;28;20061;-64
2022/08/21 10:06:34;;;;;;;6.07;2.20;;;;;;;26.06;42.05;100942.16;6045884;28;20838;-65
2022/08/21 10:09:30;;;;;;;8.20;2.28;;;;;;;25.87;42.25;100946.97;6034111;28;20041;-65
2022/08/21 10:12:33;;;;;;;8.40;2.00;;;;;;;25.77;41.93;100941.28;6037303;28;20092;-66
2022/08/21 10:15:39;;;;;;;5.40;2.00;;;;;;;25.56;41.60;100950.91;6052759;28;20029;-64
2022/08/21 10:18:46;;;;;;;4.38;2.08;;;;;;;25.75;40.81;100946.97;6056178;28;20112;-66
2022/08/21 10:22:00;;;;;;;6.20;2.00;;;;;;;25.51;40.61;100923.63;6043176;28;20030;-64
2022/08/21 10:25:01;;;;;;;7.78;1.98;;;;;;;26.25;39.76;100932.78;6044074;28;20041;-64
2022/08/21 10:28:12;;;;;;;6.13;1.80;;;;;;;26.27;39.43;100936.91;6044300;28;20484;-67
2022/08/21 10:31:15;;;;;;;5.88;1.73;;;;;;;26.94;37.42;100937.00;6028862;28;20041;-65
2022/08/21 10:34:38;;;;;;;3.53;1.63;;;;;;;27.39;36.93;100923.25;6047438;28;20033;-66
2022/08/21 10:37:45;;;;;;;3.53;1.58;;;;;;;26.95;36.99;100923.16;6058408;28;20041;-66
2022/08/21 10:40:55;;;;;;;5.65;1.88;;;;;;;26.61;37.68;100922.28;6029270;28;20061;-64
2022/08/21 10:43:59;;;;;;;13.60;2.05;;;;;;;25.67;39.44;100917.47;6036098;28;20031;-65
2022/08/21 10:47:05;;;;;;;7.20;1.83;;;;;;;25.30;41.26;100914.16;6039999;28;20022;-64
2022/08/21 10:50:12;;;;;;;6.75;2.10;;;;;;;24.93;41.46;100922.78;6061383;28;20018;-66
2022/08/21 10:53:46;;;;;;;6.47;2.30;;;;;;;25.51;40.65;100909.22;6048336;28;20386;-64
2022/08/21 10:56:43;;;;;;;4.78;1.67;;;;;;;26.30;38.70;100903.78;6038123;28;20026;-66
2022/08/21 10:59:43;;;;;;;6.07;1.60;;;;;;;26.70;37.54;100902.81;6047280;28;20053;-65
2022/08/21 11:02:45;;;;;;;5.32;1.80;;;;;;;27.06;36.60;100897.72;6041670;28;20040;-64
2022/08/21 11:05:44;;;;;;;4.35;1.92;;;;;;;26.14;38.89;100904.56;6040934;28;20062;-65
2022/08/21 11:08:42;;;;;;;6.97;1.90;;;;;;;25.79;39.59;100907.38;6039688;28;20041;-66
2022/08/21 11:11:52;;;;;;;6.75;1.85;;;;;;;26.09;38.25;100911.78;6038885;28;20113;-66
2022/08/21 11:15:00;;;;;;;6.28;1.85;;;;;;;26.35;37.69;100903.03;6041627;28;20412;-65
2022/08/21 11:18:28;;;;;;;5.93;1.65;;;;;;;26.73;37.41;100903.16;6058173;28;20500;-64
2022/08/21 11:21:47;;;;;;;6.57;1.60;;;;;;;26.85;37.28;100903.13;6033739;28;20045;-66
2022/08/21 11:24:49;;;;;;;7.10;1.50;;;;;;;26.52;37.69;100888.41;6049228;28;20414;-65
2022/08/21 11:27:49;;;;;;;4.85;1.60;;;;;;;26.73;36.40;100897.72;6036235;28;20034;-65
2022/08/21 11:30:50;;;;;;;4.43;1.40;;;;;;;26.92;35.73;100901.88;6039484;28;20037;-64
2022/08/21 11:34:00;;;;;;;2.13;1.25;;;;;;;27.33;35.10;100891.56;6039316;28;20617;-64
2022/08/21 11:36:57;;;;;;;5.82;1.50;;;;;;;27.07;35.61;100901.25;6043353;28;20044;-65
2022/08/21 11:40:03;;;;;;;3.70;1.30;;;;;;;27.35;35.00;100892.94;6054873;28;20484;-65
2022/08/21 11:43:11;;;;;;;6.15;1.60;;;;;;;26.77;35.98;100901.56;6040949;28;20049;-64
2022/08/21 11:46:29;;;;;;;6.85;1.90;;;;;;;26.70;36.26;100895.47;6025327;28;20097;-66
2022/08/21 11:49:57;;;;;;;3.17;1.90;;;;;;;27.33;34.99;100897.84;6044948;28;20159;-64
2022/08/21 11:53:00;;;;;;;3.30;1.38;;;;;;;27.65;33.08;100892.56;6038201;28;20034;-66
2022/08/21 11:56:03;;;;;;;5.85;1.55;;;;;;;27.95;32.23;100884.72;6043398;28;20038;-66
2022/08/21 11:59:28;;;;;;;4.72;1.42;;;;;;;28.09;33.43;100894.19;6041990;28;20410;-65
2022/08/21 12:02:29;;;;;;;6.25;2.05;;;;;;;27.17;34.77;100888.63;6043955;28;20053;-65
2022/08/21 12:05:32;;;;;;;5.78;1.35;;;;;;;26.60;35.67;100887.16;6045624;28;20066;-65
2022/08/21 12:08:35;;;;;;;6.25;1.33;;;;;;;26.53;36.21;100883.75;6036966;28;20042;-64
2022/08/21 12:11:30;;;;;;;4.90;1.60;;;;;;;26.56;36.70;100880.53;6037376;28;20080;-66
2022/08/21 12:14:36;;;;;;;5.43;1.52;;;;;;;26.16;35.94;100882.56;6045847;28;20030;-66
2022/08/21 12:17:37;;;;;;;5.88;1.50;;;;;;;26.22;35.70;100878.88;6033143;28;20062;-67
2022/08/21 12:20:37;;;;;;;3.13;1.33;;;;;;;26.41;34.34;100875.69;6034857;28;20116;-65
2022/08/21 12:23:34;;;;;;;;;;;;;;;26.99;33.78;100878.00;6040713;28;20034;-66
2022/08/21 12:26:33;;;;;;;5.40;1.10;;;;;;;27.15;33.21;100868.97;6043040;28;20225;-66
2022/08/21 12:29:32;;;;;;;3.60;1.13;;;;;;;27.56;33.85;100864.91;6045293;28;20030;-64
2022/08/21 12:32:30;;;;;;;8.23;1.30;;;;;;;27.85;33.02;100865.53;6042915;28;20046;-66
2022/08/21 12:35:46;;;;;;;3.78;1.40;;;;;;;28.22;32.56;100865.66;6044679;28;20372;-67
2022/08/21 12:38:47;;;;;;;4.07;1.30;;;;;;;28.52;31.37;100862.38;6035246;28;20065;-65
2022/08/21 12:41:51;;;;;;;4.07;1.45;;;;;;;28.51;30.61;100877.13;6043388;28;20038;-66
2022/08/21 12:44:50;;;;;;;8.52;1.23;;;;;;;27.69;32.74;100874.63;6042149;28;20056;-65
2022/08/21 12:47:51;;;;;;;5.50;1.45;;;;;;;26.77;33.83;100871.63;6056472;28;20052;-65
2022/08/21 12:50:53;;;;;;;2.67;1.08;;;;;;;27.02;33.80;100855.72;6043716;28;20045;-65
2022/08/21 12:53:51;;;;;;;5.78;1.00;;;;;;;27.52;32.44;100858.34;6043592;28;20116;-66
2022/08/21 12:56:56;;;;;;;5.95;1.70;;;;;;;27.94;33.42;100855.81;6038267;28;20609;-67
2022/08/21 13:00:01;;;;;;;3.13;1.30;;;;;;;27.66;32.25;100850.59;6037575;28;20120;-65
2022/08/21 13:02:56;;;;;;;2.80;1.10;;;;;;;27.33;32.66;100854.25;6044240;28;20029;-65
2022/08/21 13:05:52;;;;;;;5.03;1.60;;;;;;;26.78;33.12;100845.28;6043457;28;20034;-67
2022/08/21 13:08:53;;;;;;;4.05;1.27;;;;;;;27.15;32.98;100857.28;6043793;28;20579;-66
2022/08/21 13:11:48;;;;;;;4.53;1.35;;;;;;;27.39;32.25;100841.50;6058146;28;20088;-67
2022/08/21 13:14:47;;;;;;;4.88;1.38;;;;;;;28.12;32.14;100847.31;6045043;28;20037;-66
2022/08/21 13:17:47;;;;;;;4.28;1.50;;;;;;;28.37;30.95;100854.09;6041686;28;20385;-67
2022/08/21 13:20:42;;;;;;;3.80;1.35;;;;;;;28.06;31.22;100840.16;6041136;28;20035;-65
2022/08/21 13:23:38;;;;;;;3.97;1.10;;;;;;;27.16;32.70;100853.47;6028669;28;20045;-66
2022/08/21 13:26:33;;;;;;;5.60;1.40;;;;;;;26.61;33.36;100845.25;6035093;28;20031;-66
2022/08/21 13:29:31;;;;;;;3.40;1.50;;;;;;;26.59;33.62;100847.41;6036462;28;20084;-67
2022/08/21 13:32:27;;;;;;;4.22;1.20;;;;;;;27.37;32.30;100832.78;6042602;28;20041;-67
2022/08/21 13:35:46;;;;;;;4.30;1.35;;;;;;;27.96;31.28;100848.22;6040539;28;20034;-67
2022/08/21 13:38:44;;;;;;;4.63;1.52;;;;;;;28.26;30.21;100837.63;6046511;28;20787;-65
2022/08/21 13:41:41;;;;;;;6.50;1.50;;;;;;;28.43;30.07;100831.22;6041117;28;20540;-65
2022/08/21 13:44:43;;;;;;;3.47;1.35;;;;;;;28.68;29.67;100839.59;6041829;28;20042;-65
2022/08/21 13:47:39;;;;;;;4.22;1.25;;;;;;;28.95;30.14;100837.59;6043098;28;20038;-66
2022/08/21 13:50:36;;;;;;;3.20;1.30;;;;;;;28.32;30.51;100841.19;6045090;28;20037;-66